Terminal Aerodrome Forecast
Issued by NWS

Home | Current Version | Previous Version | Text Only | Print | Product List | Glossary On
Versions: 1 2 3 4 5 6 7 8 9 10 11 12 13 14 15 16 17 18
000
FTUS46 KMFR 021140
TAFOTH
TAF
KOTH 021140Z 0212/0312 00000KT P6SM -SHRA FEW026 OVC035
     FM021400 09005KT 6SM -RA BKN020 OVC035
     FM021800 35013KT P6SM SCT030=

USA.gov is the U.S. government's official web portal to all federal, state and local government web resources and services.